Flight Track Log - Related Links

Times and Time Zones

All times are in EDT time to prevent confusion due to time zone crossing. See the ASQ6151 flight status page for this flight to view local times or setup timezone preferences in your user account.

Time Position Orientation Groundspeed Altitude Reporting Facility
EDT Latitude Longitude Course Direction KTS km/h feet Rate Location/Type
Tue 16:19:45 44.0986 -103.0267 35° Northeast 213 394 6,200  Level Denver Center
Tue 16:20:46 44.0989 -102.9292 90° East 262 486 8,100 1,786 Climbing Denver Center
Tue 16:21:09 44.0975 -102.8944 93° East 326 604 8,700 2,066 Climbing Denver Center
Tue 16:21:47 44.1014 -102.8161 86° East 281 520 10,200 1,935 Climbing Denver Center
Tue 16:22:11 44.1006 -102.7697 91° East 290 538 10,700 918 Climbing Denver Center
Tue 16:23:25 44.1086 -102.6592 84° East 313 579 11,700 1,015 Climbing Denver Center
Tue 16:24:27 44.0961 -102.4892 96° East 355 658 13,000 1,268 Climbing Denver Center
Tue 16:25:28 44.0797 -102.3061 97° East 386 715 14,300 1,317 Climbing Denver Center
Tue 16:26:30 44.0644 -102.1464 98° East 407 753 15,700 1,306 Climbing Denver Center
Tue 16:27:32 44.0519 -101.9883 96° East 412 763 17,000 1,220 Climbing Denver Center
Tue 16:28:33 44.0478 -101.8244 92° East 422 782 18,200 1,122 Climbing Denver Center
Tue 16:29:35 44.0428 -101.6553 92° East 433 801 19,300 927 Climbing Denver Center
Tue 16:30:36 44.0317 -101.5219 97° East 434 803 20,100 1,122 Climbing Denver Center
Tue 16:31:38 44.0181 -101.3183 95° East 440 814 21,600 1,200 Climbing Denver Center
Tue 16:32:26 44.0136 -101.2192 94° East 439 813 22,300 1,351 Climbing Minneapolis Center
Tue 16:33:29 43.9961 -100.9806 96° East 444 822 24,100 1,440 Climbing Minneapolis Center
Tue 16:34:31 43.9847 -100.8106 95° East 444 822 25,300 1,113 Climbing Minneapolis Center
Tue 16:35:33 43.9725 -100.6417 96° East 445 824 26,400 1,065 Climbing Minneapolis Center
Tue 16:36:35 43.9583 -100.4667 96° East 448 830 27,500 1,016 Climbing Minneapolis Center
Tue 16:37:37 43.9464 -100.2931 95° East 452 837 28,500 1,016 Climbing Minneapolis Center
Tue 16:38:39 43.9350 -100.1178 95° East 456 845 29,600 1,113 Climbing Minneapolis Center
Tue 16:39:41 43.9236 -99.9067 94° East 459 850 30,800 1,113 Climbing Minneapolis Center
Tue 16:40:43 43.9119 -99.7300 95° East 461 855 31,900 1,065 Climbing Minneapolis Center
Tue 16:41:45 43.9008 -99.5511 95° East 466 863 33,000 1,016 Climbing Minneapolis Center
Tue 16:42:47 43.8869 -99.3697 96° East 472 874 34,000 968 Climbing Minneapolis Center
Tue 16:43:49 43.8753 -99.1881 95° East 475 880 35,000 484 Climbing Minneapolis Center
Tue 16:44:51 43.8586 -98.9667 96° East 480 888 35,000  Level Minneapolis Center
Tue 16:45:52 43.8431 -98.7739 96° East 495 917 35,000  Level Minneapolis Center
Tue 16:46:55 43.8303 -98.5967 96° East 507 938 35,000  Level Minneapolis Center
Tue 16:47:56 43.8156 -98.4039 96° East 506 937 35,000  Level Minneapolis Center
Tue 16:48:58 43.7969 -98.1744 96° East 503 932 35,000  Level Minneapolis Center
Tue 16:50:00 43.7717 -97.9836 100° East 506 937 35,000  Level Minneapolis Center
Tue 16:51:02 43.7458 -97.7914 100° East 510 945 35,000  Level Minneapolis Center
Tue 16:52:04 43.7197 -97.6033 101° East 502 930 35,000  Level Minneapolis Center
Tue 16:53:06 43.6953 -97.4161 100° East 498 922 35,000  Level Minneapolis Center
Tue 16:54:08 43.6642 -97.1897 101° East 501 929 35,000  Level Minneapolis Center
Tue 16:55:10 43.6394 -96.9997 100° East 505 935 35,000  Level Minneapolis Center
Tue 16:56:12 43.6128 -96.8086 101° East 510 945 35,000  Level Minneapolis Center
Tue 16:57:14 43.5858 -96.6164 101° East 514 953 35,000  Level Minneapolis Center
Tue 16:58:16 43.5597 -96.4267 101° East 511 946 35,000  Level Minneapolis Center
Tue 16:59:18 43.5319 -96.2403 102° East 504 933 35,000  Level Minneapolis Center
Tue 17:00:20 43.5003 -96.0169 101° East 500 925 35,000  Level Minneapolis Center
Tue 17:01:22 43.4722 -95.8319 102° East 499 924 35,000  Level Minneapolis Center
Tue 17:02:23 43.4458 -95.6472 101° East 496 919 35,000  Level Minneapolis Center
Tue 17:03:25 43.4200 -95.4661 101° East 490 908 35,000  Level Minneapolis Center
Tue 17:04:27 43.3961 -95.2892 100° East 476 882 35,000  Level Minneapolis Center
Tue 17:05:41 43.3664 -95.0719 101° East 483 895 35,000  Level Minneapolis Center
Tue 17:06:43 43.3356 -94.8519 101° East 490 908 35,000  Level Minneapolis Center
Tue 17:07:45 43.3114 -94.6681 100° East 490 908 35,000  Level Minneapolis Center
Tue 17:08:47 43.2861 -94.4861 101° East 487 901 35,000  Level Minneapolis Center
Tue 17:09:49 43.2603 -94.3047 101° East 485 898 35,000  Level Minneapolis Center
Tue 17:10:51 43.2347 -94.1211 101° East 484 896 35,000  Level Minneapolis Center
Tue 17:11:52 43.2111 -93.9428 100° East 480 888 35,000  Level Minneapolis Center
Tue 17:12:54 43.1808 -93.7289 101° East 481 892 35,000  Level Minneapolis Center
Tue 17:13:56 43.1575 -93.5531 100° East 476 882 35,000  Level Minneapolis Center
Tue 17:14:58 43.1361 -93.3764 99° East 476 882 35,000  Level Minneapolis Center
Tue 17:15:59 43.1136 -93.2019 100° East 472 874 35,000 -488 Level Minneapolis Center
Tue 17:17:01 43.0908 -93.0294 100° East 466 863 34,000 -1,016 Descending Minneapolis Center
Tue 17:18:03 43.0733 -92.8561 98° East 464 859 32,900 -1,210 Descending Minneapolis Center
Tue 17:19:05 43.0506 -92.6478 98° East 466 863 31,500 -927 Descending Minneapolis Center
Tue 17:20:06 43.0325 -92.4761 98° East 462 856 31,000 -244 Descending Minneapolis Center
Tue 17:21:08 43.0131 -92.3011 99° East 467 864 31,000  Level Minneapolis Center
Tue 17:22:10 42.9953 -92.1228 98° East 475 880 31,000  Level Minneapolis Center
Tue 17:23:11 42.9778 -91.9436 98° East 477 884 31,000  Level Minneapolis Center
Tue 17:24:13 42.9633 -91.7978 98° East 480 888 31,000 -145 Level Minneapolis Center
Tue 17:25:15 42.9425 -91.5775 97° East 483 895 30,700 -634 Descending Minneapolis Center
Tue 17:26:16 42.9244 -91.3947 98° East 481 892 29,700 -1,024 Descending Minneapolis Center
Tue 17:27:18 42.9017 -91.1767 98° East 483 895 28,600 -1,210 Descending Minneapolis Center
Tue 17:28:20 42.8775 -90.9969 100° East 485 898 27,200 -1,291 Descending Minneapolis Center
Tue 17:28:37 42.8736 -90.9642 99° East 479 887 26,900 -1,291 Descending Chicago Center
Tue 17:29:39 42.8450 -90.7931 103° East 469 869 25,500 -1,403 Descending Chicago Center
Tue 17:30:41 42.8094 -90.5850 103° East 472 874 24,000 -726 Descending Chicago Center
Tue 17:31:43 42.7783 -90.4147 104° East 468 867 24,000  Level Chicago Center
Tue 17:32:45 42.7472 -90.2472 104° East 463 858 24,000 -435 Level Chicago Center
Tue 17:33:47 42.7203 -90.0925 103° East 429 795 23,100 -1,548 Descending Chicago Center
Tue 17:34:49 42.6836 -89.9122 105° East 421 779 20,800 -1,839 Descending Chicago Center
Tue 17:35:51 42.6589 -89.7692 103° East 390 723 19,300 -1,452 Descending Chicago Center
Tue 17:36:53 42.6361 -89.6389 103° East 358 663 17,800 -1,488 Descending Chicago Center
Tue 17:37:56 42.6131 -89.4997 103° East 375 695 16,200 -1,536 Descending Chicago Center
Tue 17:38:58 42.5933 -89.3675 101° East 361 668 14,600 -1,306 Descending Chicago Center
Tue 17:40:00 42.5703 -89.2219 102° East 341 631 13,500 -968 Descending Chicago Center
Tue 17:41:02 42.5569 -89.0969 98° East 335 621 12,600 -968 Descending Chicago Center
Tue 17:42:04 42.5317 -88.9842 107° East 311 576 11,500 -968 Descending Chicago Center
Tue 17:43:06 42.4953 -88.8831 116° Southeast 301 557 10,600 -1,016 Descending Chicago Center
Tue 17:44:08 42.4639 -88.7761 112° Southeast 302 560 9,400 -774 Descending Chicago Center
Tue 17:45:10 42.4294 -88.6508 110° East 304 563 9,000 -194 Descending Chicago Center
Tue 17:46:12 42.4019 -88.5433 109° East 303 562 9,000 -145 Level Chicago Center
Tue 17:47:14 42.3764 -88.4344 108° East 303 562 8,700 -672 Descending Chicago Center
Tue 17:48:17 42.3464 -88.3314 111° Southeast 298 552 7,600 -816 Descending Chicago Center
Tue 17:49:19 42.2908 -88.2764 144° Southeast 262 486 7,000 -339 Descending Chicago Center
Tue 17:50:21 42.2331 -88.2075 139° Southeast 236 438 6,900 -677 Descending Chicago Center
Tue 17:51:23 42.1842 -88.1528 140° Southeast 232 430 5,600 -1,258 Descending Chicago Center
Tue 17:52:25 42.1375 -88.1003 140° Southeast 223 414 4,300 -1,333 Descending Chicago Center
Tue 17:52:44 42.1167 -88.0833 149° Southeast 220 407 3,800 -1,139 Descending Chicago TRACON
Tue 17:53:44 42.0833 -88.0333 132° Southeast 200 370 2,800 -947 Descending Chicago TRACON
Tue 17:54:38 42.0333 -87.9833 143° Southeast 169 312 2,000 -895 Descending Chicago TRACON
Tue 17:55:38 42.0167 -87.9500 124° Southeast 147 272 1,100 -900 Descending Chicago TRACON
Tue 17:57:00 41.9817 -87.9067 180° South  Level Estimated

Login

Don't have an account? Register now (free) for customized features, flight alerts, and more!